createdAt,value
2022-11-17T00:25:31.534Z,11.9
2022-11-17T00:54:36.290Z,11.92
2022-11-17T01:23:41.681Z,11.91
2022-11-17T01:52:48.181Z,12.05
2022-11-17T02:21:50.650Z,11.89
2022-11-17T02:50:54.874Z,11.64
2022-11-17T03:19:57.368Z,11.69
2022-11-17T03:49:02.723Z,11.76
2022-11-17T04:18:07.117Z,11.86
2022-11-17T04:47:09.359Z,11.86
2022-11-17T05:16:17.250Z,11.97
2022-11-17T05:45:21.921Z,12.54
2022-11-17T06:14:33.778Z,13.45
2022-11-17T06:43:43.220Z,13.77
2022-11-17T07:12:45.799Z,13.69
2022-11-17T07:41:48.855Z,13.59
2022-11-17T08:10:49.980Z,13.69
2022-11-17T08:39:56.045Z,13.56
2022-11-17T09:09:05.966Z,13.61
2022-11-17T09:37:56.190Z,13.57
2022-11-17T10:07:01.039Z,13.96
2022-11-17T10:35:54.228Z,13.38
2022-11-17T11:04:57.169Z,14.45
2022-11-17T11:34:13.550Z,15.48
2022-11-17T12:03:25.615Z,16.03
2022-11-17T12:32:27.601Z,15.55
2022-11-17T13:01:41.616Z,16.37
2022-11-17T13:30:37.929Z,15.93
2022-11-17T13:59:49.088Z,16.36
2022-11-17T14:28:58.112Z,17.19
2022-11-17T14:57:57.520Z,16.17
2022-11-17T15:26:59.796Z,15.78
2022-11-17T15:55:57.470Z,15.36
2022-11-17T16:24:59.268Z,15.2
2022-11-17T16:53:59.856Z,15.02
2022-11-17T17:23:03.714Z,14.89
2022-11-17T17:51:34.027Z,14.69
2022-11-17T18:20:18.295Z,13.17
2022-11-17T18:49:15.082Z,12.58
2022-11-17T19:17:56.437Z,12.17
2022-11-17T19:46:49.309Z,11.86
2022-11-17T20:15:49.419Z,11.69
2022-11-17T20:44:57.242Z,11.4
2022-11-17T21:14:05.079Z,11.31
2022-11-17T21:43:08.364Z,11.21
2022-11-17T22:12:14.864Z,11.21
2022-11-17T22:41:22.750Z,11.31
2022-11-17T23:10:29.633Z,11.29
2022-11-17T23:39:37.658Z,11.18
